Chitral Weather



Chitral's Current Weather

Temprature 35.04o clear sky

clear sky

Rain: 0 %

Min Temprature35.04o
Max Temprature35.04o
Humidity23
Wind Speed4.3 m/h
Sun Rise05:14:09
Sun Set19:24:15
Current Time: 24-Jul-2021 16:11:35
Lat/Lon: 35.8462, 71.7858




Chitral's Geo Location



Chitral's Weather Forecast

Time Overall Temp Min Temp Max Temp Humidity Wind Speed Rain
24-Jul-2021 (Sat)
17:00:00 clear sky 34.380 34.380 34.380 25 4.55 m/h 0 %
20:00:00 clear sky 32.920 30.000 32.920 32 2.86 m/h 0 %
23:00:00 clear sky 30.260 28.200 30.260 46 1.82 m/h 0 %
25-Jul-2021 (Sun)
02:00:00 clear sky 27.140 27.140 27.140 54 0.64 m/h 0 %
05:00:00 clear sky 26.410 26.410 26.410 47 1.77 m/h 0 %
08:00:00 clear sky 30.170 30.170 30.170 32 1.38 m/h 0 %
11:00:00 scattered clouds 34.390 34.390 34.390 24 1.8 m/h 0 %
14:00:00 overcast clouds 36.980 36.980 36.980 23 3.62 m/h 0 %
17:00:00 broken clouds 36.100 36.100 36.100 30 4.03 m/h 0 %
20:00:00 clear sky 31.140 31.140 31.140 53 3.3 m/h 0 %
23:00:00 clear sky 28.920 28.920 28.920 60 2.01 m/h 0 %
26-Jul-2021 (Mon)
02:00:00 clear sky 27.310 27.310 27.310 63 1.68 m/h 0 %
05:00:00 clear sky 26.140 26.140 26.140 64 0.54 m/h 0 %
08:00:00 clear sky 30.450 30.450 30.450 37 0.89 m/h 0 %
11:00:00 clear sky 35.030 35.030 35.030 27 2.26 m/h 0 %
14:00:00 clear sky 37.560 37.560 37.560 26 3.8 m/h 0 %
17:00:00 clear sky 36.570 36.570 36.570 33 4 m/h 0 %
20:00:00 clear sky 31.790 31.790 31.790 54 3.01 m/h 0 %
23:00:00 clear sky 29.310 29.310 29.310 62 1.8 m/h 0 %
27-Jul-2021 (Tue)
02:00:00 clear sky 27.640 27.640 27.640 66 1.1 m/h 0 %
05:00:00 clear sky 26.870 26.870 26.870 57 1.75 m/h 0 %
08:00:00 clear sky 30.650 30.650 30.650 29 2.4 m/h 0 %
11:00:00 clear sky 34.990 34.990 34.990 21 0.66 m/h 0 %
14:00:00 clear sky 38.130 38.130 38.130 20 3.52 m/h 0 %
17:00:00 clear sky 36.730 36.730 36.730 30 5.39 m/h 0 %
20:00:00 light rain 30.460 30.460 30.460 62 3.48 m/h 110 %
23:00:00 light rain 29.280 29.280 29.280 59 1.75 m/h 178 %
28-Jul-2021 (Wed)
02:00:00 light rain 27.910 27.910 27.910 57 1.2 m/h 40 %
05:00:00 light rain 26.230 26.230 26.230 60 1.14 m/h 13 %
08:00:00 clear sky 28.590 28.590 28.590 46 0.91 m/h 0 %
11:00:00 clear sky 32.990 32.990 32.990 32 2.62 m/h 0 %
14:00:00 clear sky 35.090 35.090 35.090 35 4.94 m/h 0 %
17:00:00 light rain 32.500 32.500 32.500 50 5.47 m/h 33 %
20:00:00 light rain 27.820 27.820 27.820 71 4.32 m/h 254 %
23:00:00 light rain 26.150 26.150 26.150 73 2.63 m/h 212 %
29-Jul-2021 (Thu)
02:00:00 light rain 25.330 25.330 25.330 73 1.04 m/h 24 %
05:00:00 clear sky 24.770 24.770 24.770 68 0.96 m/h 0 %
08:00:00 clear sky 27.260 27.260 27.260 51 0.9 m/h 0 %
11:00:00 clear sky 31.700 31.700 31.700 34 2.6 m/h 0 %
14:00:00 clear sky 34.110 34.110 34.110 33 4.08 m/h 0 %

Famous Cities (60)